sensor_id;sensor_type;location;lat;lon;timestamp;pressure;altitude;pressure_sealevel;temperature;humidity
12349;BME280;5974;42.710;27.258;2023-05-10T00:01:26;100764.97;;;6.42;100.00
12349;BME280;5974;42.710;27.258;2023-05-10T00:03:53;100768.44;;;6.41;100.00
12349;BME280;5974;42.710;27.258;2023-05-10T00:06:20;100772.72;;;6.43;100.00
12349;BME280;5974;42.710;27.258;2023-05-10T00:08:47;100764.13;;;6.41;100.00
12349;BME280;5974;42.710;27.258;2023-05-10T00:11:14;100763.34;;;6.36;100.00
12349;BME280;5974;42.710;27.258;2023-05-10T00:13:42;100752.13;;;6.33;100.00
12349;BME280;5974;42.710;27.258;2023-05-10T00:16:09;100753.91;;;6.28;100.00
12349;BME280;5974;42.710;27.258;2023-05-10T00:18:37;100751.47;;;6.16;100.00
12349;BME280;5974;42.710;27.258;2023-05-10T00:21:04;100753.06;;;6.26;100.00
12349;BME280;5974;42.710;27.258;2023-05-10T00:23:31;100749.59;;;6.25;100.00
12349;BME280;5974;42.710;27.258;2023-05-10T00:25:58;100753.91;;;6.29;100.00
12349;BME280;5974;42.710;27.258;2023-05-10T00:28:27;100736.00;;;6.07;100.00
12349;BME280;5974;42.710;27.258;2023-05-10T00:30:56;100731.47;;;6.22;100.00
12349;BME280;5974;42.710;27.258;2023-05-10T00:33:23;100754.78;;;6.27;100.00
12349;BME280;5974;42.710;27.258;2023-05-10T00:35:49;100740.13;;;6.24;100.00
12349;BME280;5974;42.710;27.258;2023-05-10T00:38:16;100745.06;;;6.41;100.00
12349;BME280;5974;42.710;27.258;2023-05-10T00:40:43;100751.09;;;6.46;100.00
12349;BME280;5974;42.710;27.258;2023-05-10T00:43:10;100753.66;;;6.47;100.00
12349;BME280;5974;42.710;27.258;2023-05-10T00:45:37;100751.78;;;6.55;100.00
12349;BME280;5974;42.710;27.258;2023-05-10T00:48:08;100757.03;;;6.52;100.00
12349;BME280;5974;42.710;27.258;2023-05-10T00:50:35;100756.91;;;6.62;100.00
12349;BME280;5974;42.710;27.258;2023-05-10T00:53:02;100735.47;;;6.49;100.00
12349;BME280;5974;42.710;27.258;2023-05-10T00:55:30;100750.47;;;6.88;100.00
12349;BME280;5974;42.710;27.258;2023-05-10T00:57:56;100742.56;;;6.94;100.00
12349;BME280;5974;42.710;27.258;2023-05-10T01:00:24;100741.59;;;7.00;100.00
12349;BME280;5974;42.710;27.258;2023-05-10T01:02:52;100747.56;;;7.05;100.00
12349;BME280;5974;42.710;27.258;2023-05-10T01:05:21;100741.47;;;7.07;100.00
12349;BME280;5974;42.710;27.258;2023-05-10T01:07:48;100741.44;;;7.11;100.00
12349;BME280;5974;42.710;27.258;2023-05-10T01:10:15;100741.44;;;7.11;100.00
12349;BME280;5974;42.710;27.258;2023-05-10T01:12:44;100741.38;;;7.14;100.00
12349;BME280;5974;42.710;27.258;2023-05-10T01:15:12;100738.69;;;7.18;100.00
12349;BME280;5974;42.710;27.258;2023-05-10T01:17:42;100744.63;;;7.26;100.00
12349;BME280;5974;42.710;27.258;2023-05-10T01:20:11;100733.44;;;7.21;100.00
12349;BME280;5974;42.710;27.258;2023-05-10T01:26:07;100728.19;;;7.26;100.00
12349;BME280;5974;42.710;27.258;2023-05-10T01:34:45;100718.16;;;5.76;100.00
12349;BME280;5974;42.710;27.258;2023-05-10T01:37:20;100720.97;;;6.33;100.00
12349;BME280;5974;42.710;27.258;2023-05-10T01:39:52;100716.63;;;5.57;100.00
12349;BME280;5974;42.710;27.258;2023-05-10T01:42:23;100703.44;;;5.81;100.00
12349;BME280;5974;42.710;27.258;2023-05-10T01:44:58;100723.81;;;6.15;100.00
12349;BME280;5974;42.710;27.258;2023-05-10T01:47:32;100720.44;;;6.07;100.00
12349;BME280;5974;42.710;27.258;2023-05-10T01:50:06;100721.88;;;6.29;100.00
12349;BME280;5974;42.710;27.258;2023-05-10T01:52:36;100730.41;;;6.38;100.00
12349;BME280;5974;42.710;27.258;2023-05-10T01:55:07;100719.00;;;6.47;100.00
12349;BME280;5974;42.710;27.258;2023-05-10T01:57:37;100725.63;;;6.68;100.00
12349;BME280;5974;42.710;27.258;2023-05-10T02:00:07;100695.41;;;6.62;100.00
12349;BME280;5974;42.710;27.258;2023-05-10T02:02:39;100727.13;;;6.84;100.00
12349;BME280;5974;42.710;27.258;2023-05-10T02:05:09;100730.38;;;6.96;100.00
12349;BME280;5974;42.710;27.258;2023-05-10T02:07:39;100727.63;;;7.05;100.00
12349;BME280;5974;42.710;27.258;2023-05-10T02:10:07;100719.88;;;7.04;100.00
12349;BME280;5974;42.710;27.258;2023-05-10T02:12:37;100720.63;;;7.11;100.00
12349;BME280;5974;42.710;27.258;2023-05-10T02:15:07;100709.28;;;7.16;100.00
12349;BME280;5974;42.710;27.258;2023-05-10T02:17:35;100719.56;;;7.22;100.00
12349;BME280;5974;42.710;27.258;2023-05-10T02:20:05;100726.19;;;7.40;100.00
12349;BME280;5974;42.710;27.258;2023-05-10T02:22:35;100724.38;;;7.43;100.00
12349;BME280;5974;42.710;27.258;2023-05-10T02:25:03;100717.50;;;7.41;100.00
12349;BME280;5974;42.710;27.258;2023-05-10T02:27:31;100720.00;;;7.45;100.00
12349;BME280;5974;42.710;27.258;2023-05-10T02:29:58;100715.66;;;7.47;100.00
12349;BME280;5974;42.710;27.258;2023-05-10T02:32:27;100715.94;;;7.29;100.00
12349;BME280;5974;42.710;27.258;2023-05-10T02:34:54;100724.34;;;7.45;100.00
12349;BME280;5974;42.710;27.258;2023-05-10T02:37:22;100708.25;;;7.25;100.00
12349;BME280;5974;42.710;27.258;2023-05-10T02:39:54;100725.09;;;7.51;100.00
12349;BME280;5974;42.710;27.258;2023-05-10T02:42:24;100721.50;;;7.57;100.00
12349;BME280;5974;42.710;27.258;2023-05-10T02:44:56;100716.53;;;7.46;100.00
12349;BME280;5974;42.710;27.258;2023-05-10T02:47:23;100714.63;;;7.56;100.00
12349;BME280;5974;42.710;27.258;2023-05-10T02:49:50;100726.59;;;7.63;100.00
12349;BME280;5974;42.710;27.258;2023-05-10T02:52:21;100698.38;;;7.43;100.00
12349;BME280;5974;42.710;27.258;2023-05-10T02:54:54;100699.53;;;7.29;100.00
12349;BME280;5974;42.710;27.258;2023-05-10T02:57:25;100733.59;;;7.61;100.00
12349;BME280;5974;42.710;27.258;2023-05-10T02:59:53;100713.19;;;7.40;100.00
12349;BME280;5974;42.710;27.258;2023-05-10T03:02:20;100731.59;;;7.75;100.00
12349;BME280;5974;42.710;27.258;2023-05-10T03:04:47;100709.25;;;7.65;100.00
12349;BME280;5974;42.710;27.258;2023-05-10T03:07:14;100724.44;;;7.86;100.00
12349;BME280;5974;42.710;27.258;2023-05-10T03:09:42;100722.78;;;7.82;100.00
12349;BME280;5974;42.710;27.258;2023-05-10T03:12:15;100715.75;;;7.86;100.00
12349;BME280;5974;42.710;27.258;2023-05-10T03:14:49;100725.25;;;7.90;100.00
12349;BME280;5974;42.710;27.258;2023-05-10T03:17:23;100718.44;;;7.83;100.00
12349;BME280;5974;42.710;27.258;2023-05-10T03:19:54;100713.31;;;7.78;100.00
12349;BME280;5974;42.710;27.258;2023-05-10T03:22:25;100680.00;;;7.51;100.00
12349;BME280;5974;42.710;27.258;2023-05-10T03:24:55;100710.56;;;7.86;100.00
12349;BME280;5974;42.710;27.258;2023-05-10T03:27:26;100718.22;;;7.93;100.00
12349;BME280;5974;42.710;27.258;2023-05-10T03:29:55;100719.84;;;7.97;100.00
12349;BME280;5974;42.710;27.258;2023-05-10T03:32:22;100725.66;;;8.11;100.00
12349;BME280;5974;42.710;27.258;2023-05-10T03:34:49;100698.16;;;7.98;100.00
12349;BME280;5974;42.710;27.258;2023-05-10T03:37:16;100712.47;;;8.19;100.00
12349;BME280;5974;42.710;27.258;2023-05-10T03:39:43;100702.09;;;8.16;100.00
12349;BME280;5974;42.710;27.258;2023-05-10T03:42:10;100719.25;;;8.28;100.00
12349;BME280;5974;42.710;27.258;2023-05-10T03:44:39;100718.44;;;8.24;100.00
12349;BME280;5974;42.710;27.258;2023-05-10T03:47:06;100721.78;;;8.31;100.00
12349;BME280;5974;42.710;27.258;2023-05-10T03:49:33;100719.03;;;8.37;100.00
12349;BME280;5974;42.710;27.258;2023-05-10T03:52:00;100722.69;;;8.68;100.00
12349;BME280;5974;42.710;27.258;2023-05-10T03:54:27;100717.63;;;8.62;100.00
12349;BME280;5974;42.710;27.258;2023-05-10T03:56:53;100719.91;;;8.76;100.00
12349;BME280;5974;42.710;27.258;2023-05-10T03:59:20;100709.19;;;8.88;100.00
12349;BME280;5974;42.710;27.258;2023-05-10T04:01:49;100723.25;;;8.82;100.00
12349;BME280;5974;42.710;27.258;2023-05-10T04:04:15;100730.78;;;9.28;100.00
12349;BME280;5974;42.710;27.258;2023-05-10T04:06:43;100732.88;;;9.48;100.00
12349;BME280;5974;42.710;27.258;2023-05-10T04:09:10;100728.94;;;9.96;100.00
12349;BME280;5974;42.710;27.258;2023-05-10T04:11:37;100715.56;;;11.19;100.00
12349;BME280;5974;42.710;27.258;2023-05-10T04:14:04;100702.41;;;12.85;100.00
12349;BME280;5974;42.710;27.258;2023-05-10T04:16:31;100625.91;;;13.93;100.00
12349;BME280;5974;42.710;27.258;2023-05-10T04:19:00;100681.56;;;15.96;100.00
12349;BME280;5974;42.710;27.258;2023-05-10T04:21:27;100671.16;;;17.62;100.00
12349;BME280;5974;42.710;27.258;2023-05-10T04:23:53;100670.06;;;19.16;91.20
12349;BME280;5974;42.710;27.258;2023-05-10T04:26:20;100674.81;;;21.21;76.60
12349;BME280;5974;42.710;27.258;2023-05-10T04:28:47;100673.25;;;21.18;69.19
12349;BME280;5974;42.710;27.258;2023-05-10T04:31:14;100660.31;;;21.82;65.97
12349;BME280;5974;42.710;27.258;2023-05-10T04:33:41;100662.81;;;22.50;63.75
12349;BME280;5974;42.710;27.258;2023-05-10T04:36:09;100660.44;;;23.93;59.39
12349;BME280;5974;42.710;27.258;2023-05-10T04:38:36;100659.56;;;25.20;55.56
12349;BME280;5974;42.710;27.258;2023-05-10T04:41:04;100667.47;;;25.12;52.09
12349;BME280;5974;42.710;27.258;2023-05-10T04:43:31;100670.97;;;25.98;51.30
12349;BME280;5974;42.710;27.258;2023-05-10T04:45:58;100674.63;;;25.60;49.81
12349;BME280;5974;42.710;27.258;2023-05-10T04:48:25;100666.34;;;26.54;48.75
12349;BME280;5974;42.710;27.258;2023-05-10T04:50:52;100670.34;;;26.68;47.50
12349;BME280;5974;42.710;27.258;2023-05-10T04:53:20;100679.22;;;26.96;46.59
12349;BME280;5974;42.710;27.258;2023-05-10T04:55:47;100673.94;;;25.95;47.29
12349;BME280;5974;42.710;27.258;2023-05-10T04:58:14;100644.19;;;24.65;49.35
12349;BME280;5974;42.710;27.258;2023-05-10T05:00:41;100677.28;;;23.63;50.87
12349;BME280;5974;42.710;27.258;2023-05-10T05:03:08;100670.75;;;24.07;51.47
12349;BME280;5974;42.710;27.258;2023-05-10T05:05:35;100666.59;;;24.14;51.32
12349;BME280;5974;42.710;27.258;2023-05-10T05:08:02;100671.25;;;23.92;50.76
12349;BME280;5974;42.710;27.258;2023-05-10T05:10:30;100672.28;;;21.87;53.26
12349;BME280;5974;42.710;27.258;2023-05-10T05:12:57;100673.03;;;20.97;56.17
12349;BME280;5974;42.710;27.258;2023-05-10T05:15:25;100673.22;;;21.75;56.13
12349;BME280;5974;42.710;27.258;2023-05-10T05:17:51;100659.97;;;23.58;53.11
12349;BME280;5974;42.710;27.258;2023-05-10T05:20:18;100660.94;;;22.07;53.41
12349;BME280;5974;42.710;27.258;2023-05-10T05:22:45;100666.63;;;21.24;56.76
12349;BME280;5974;42.710;27.258;2023-05-10T05:25:12;100659.03;;;22.75;54.51
12349;BME280;5974;42.710;27.258;2023-05-10T05:27:41;100657.31;;;23.26;52.17
12349;BME280;5974;42.710;27.258;2023-05-10T05:30:09;100670.34;;;21.21;55.10
12349;BME280;5974;42.710;27.258;2023-05-10T05:32:36;100668.84;;;19.97;59.08
12349;BME280;5974;42.710;27.258;2023-05-10T05:35:03;100673.22;;;17.85;63.68
12349;BME280;5974;42.710;27.258;2023-05-10T05:37:31;100664.41;;;16.52;68.92
12349;BME280;5974;42.710;27.258;2023-05-10T05:39:58;100697.34;;;15.46;75.46
12349;BME280;5974;42.710;27.258;2023-05-10T05:42:27;100653.91;;;16.82;78.56
12349;BME280;5974;42.710;27.258;2023-05-10T05:44:55;100672.38;;;16.19;78.11
12349;BME280;5974;42.710;27.258;2023-05-10T05:47:22;100682.19;;;15.34;83.44
12349;BME280;5974;42.710;27.258;2023-05-10T05:49:49;100672.66;;;15.32;88.70
12349;BME280;5974;42.710;27.258;2023-05-10T05:52:16;100667.97;;;15.02;91.55
12349;BME280;5974;42.710;27.258;2023-05-10T05:54:43;100668.91;;;15.36;93.70
12349;BME280;5974;42.710;27.258;2023-05-10T05:57:10;100668.97;;;16.01;90.75
12349;BME280;5974;42.710;27.258;2023-05-10T05:59:36;100655.66;;;16.67;84.67
12349;BME280;5974;42.710;27.258;2023-05-10T06:02:08;100676.25;;;17.79;81.90
12349;BME280;5974;42.710;27.258;2023-05-10T06:04:35;100650.72;;;19.01;74.15
12349;BME280;5974;42.710;27.258;2023-05-10T06:07:02;100670.19;;;18.87;72.44
12349;BME280;5974;42.710;27.258;2023-05-10T06:09:29;100675.78;;;17.87;72.80
12349;BME280;5974;42.710;27.258;2023-05-10T06:11:56;100675.13;;;16.64;76.22
12349;BME280;5974;42.710;27.258;2023-05-10T06:14:22;100677.94;;;16.30;79.31
12349;BME280;5974;42.710;27.258;2023-05-10T06:16:49;100683.47;;;15.60;80.88
12349;BME280;5974;42.710;27.258;2023-05-10T06:19:17;100676.13;;;15.15;81.99
12349;BME280;5974;42.710;27.258;2023-05-10T06:21:44;100682.81;;;15.89;85.26
12349;BME280;5974;42.710;27.258;2023-05-10T06:24:11;100686.63;;;17.82;80.86
12349;BME280;5974;42.710;27.258;2023-05-10T06:26:38;100684.44;;;18.99;68.61
12349;BME280;5974;42.710;27.258;2023-05-10T06:29:05;100694.22;;;20.14;68.53
12349;BME280;5974;42.710;27.258;2023-05-10T06:31:32;100689.72;;;22.47;59.51
12349;BME280;5974;42.710;27.258;2023-05-10T06:33:59;100699.44;;;19.65;62.13
12349;BME280;5974;42.710;27.258;2023-05-10T06:36:27;100702.72;;;18.08;64.46
12349;BME280;5974;42.710;27.258;2023-05-10T06:38:54;100699.47;;;17.60;65.89
12349;BME280;5974;42.710;27.258;2023-05-10T06:41:21;100699.81;;;16.95;68.74
12349;BME280;5974;42.710;27.258;2023-05-10T06:43:49;100696.84;;;16.85;71.21
12349;BME280;5974;42.710;27.258;2023-05-10T06:46:16;100700.25;;;17.17;69.79
12349;BME280;5974;42.710;27.258;2023-05-10T06:48:42;100699.13;;;16.44;71.05
12349;BME280;5974;42.710;27.258;2023-05-10T06:51:10;100698.19;;;16.30;72.85
12349;BME280;5974;42.710;27.258;2023-05-10T06:53:38;100704.94;;;16.51;72.89
12349;BME280;5974;42.710;27.258;2023-05-10T06:56:05;100694.72;;;15.81;74.29
12349;BME280;5974;42.710;27.258;2023-05-10T06:58:32;100677.22;;;15.62;74.68
12349;BME280;5974;42.710;27.258;2023-05-10T07:01:02;100699.50;;;15.72;75.65
12349;BME280;5974;42.710;27.258;2023-05-10T07:03:30;100694.69;;;16.29;74.24
12349;BME280;5974;42.710;27.258;2023-05-10T07:06:01;100698.22;;;17.22;71.68
12349;BME280;5974;42.710;27.258;2023-05-10T07:08:30;100683.31;;;17.35;70.12
12349;BME280;5974;42.710;27.258;2023-05-10T07:11:09;100694.78;;;16.43;71.60
12349;BME280;5974;42.710;27.258;2023-05-10T07:13:36;100696.19;;;17.11;71.66
12349;BME280;5974;42.710;27.258;2023-05-10T07:16:06;100685.81;;;19.05;65.96
12349;BME280;5974;42.710;27.258;2023-05-10T07:18:33;100700.75;;;19.32;63.19
12349;BME280;5974;42.710;27.258;2023-05-10T07:21:00;100704.19;;;17.55;65.66
12349;BME280;5974;42.710;27.258;2023-05-10T07:23:27;100710.53;;;15.81;69.62
12349;BME280;5974;42.710;27.258;2023-05-10T07:25:54;100708.06;;;15.78;70.88
12349;BME280;5974;42.710;27.258;2023-05-10T07:28:24;100698.16;;;15.65;72.76
12349;BME280;5974;42.710;27.258;2023-05-10T07:30:51;100711.03;;;16.20;72.86
12349;BME280;5974;42.710;27.258;2023-05-10T07:33:18;100712.00;;;15.86;74.60
12349;BME280;5974;42.710;27.258;2023-05-10T07:35:45;100712.41;;;16.43;73.05
12349;BME280;5974;42.710;27.258;2023-05-10T07:38:12;100702.34;;;17.12;69.78
12349;BME280;5974;42.710;27.258;2023-05-10T07:40:40;100675.28;;;16.77;70.00
12349;BME280;5974;42.710;27.258;2023-05-10T07:43:07;100699.66;;;16.82;70.40
12349;BME280;5974;42.710;27.258;2023-05-10T07:45:35;100704.50;;;16.90;69.89
12349;BME280;5974;42.710;27.258;2023-05-10T07:48:02;100718.91;;;16.68;69.01
12349;BME280;5974;42.710;27.258;2023-05-10T07:50:29;100712.06;;;16.96;67.66
12349;BME280;5974;42.710;27.258;2023-05-10T07:52:56;100713.97;;;16.94;67.40
12349;BME280;5974;42.710;27.258;2023-05-10T07:55:23;100706.75;;;17.11;68.02
12349;BME280;5974;42.710;27.258;2023-05-10T07:57:50;100719.66;;;17.02;68.23
12349;BME280;5974;42.710;27.258;2023-05-10T08:00:18;100711.22;;;16.95;68.07
12349;BME280;5974;42.710;27.258;2023-05-10T08:02:47;100721.91;;;17.23;68.10
12349;BME280;5974;42.710;27.258;2023-05-10T08:05:14;100713.97;;;16.94;69.76
12349;BME280;5974;42.710;27.258;2023-05-10T08:07:41;100710.06;;;17.15;67.25
12349;BME280;5974;42.710;27.258;2023-05-10T08:10:08;100671.31;;;16.39;69.00
12349;BME280;5974;42.710;27.258;2023-05-10T08:12:36;100713.13;;;16.62;67.88
12349;BME280;5974;42.710;27.258;2023-05-10T08:15:03;100705.47;;;16.57;67.54
12349;BME280;5974;42.710;27.258;2023-05-10T08:17:30;100711.69;;;17.17;67.33
12349;BME280;5974;42.710;27.258;2023-05-10T08:19:59;100704.84;;;16.84;65.63
12349;BME280;5974;42.710;27.258;2023-05-10T08:22:26;100708.47;;;16.67;66.59
12349;BME280;5974;42.710;27.258;2023-05-10T08:24:53;100707.75;;;16.48;67.49
12349;BME280;5974;42.710;27.258;2023-05-10T08:27:19;100711.50;;;16.91;68.22
12349;BME280;5974;42.710;27.258;2023-05-10T08:29:46;100711.31;;;17.23;65.68
12349;BME280;5974;42.710;27.258;2023-05-10T08:32:13;100704.75;;;17.01;65.93
12349;BME280;5974;42.710;27.258;2023-05-10T08:34:40;100712.09;;;16.33;65.43
12349;BME280;5974;42.710;27.258;2023-05-10T08:37:08;100691.16;;;15.97;67.02
12349;BME280;5974;42.710;27.258;2023-05-10T08:39:38;100718.50;;;16.60;66.33
12349;BME280;5974;42.710;27.258;2023-05-10T08:42:07;100697.25;;;16.15;66.73
12349;BME280;5974;42.710;27.258;2023-05-10T08:44:36;100719.69;;;16.70;66.80
12349;BME280;5974;42.710;27.258;2023-05-10T08:47:05;100722.00;;;16.61;66.20
12349;BME280;5974;42.710;27.258;2023-05-10T08:49:33;100732.84;;;16.23;66.56
12349;BME280;5974;42.710;27.258;2023-05-10T08:52:03;100725.94;;;16.21;68.03
12349;BME280;5974;42.710;27.258;2023-05-10T08:54:33;100725.38;;;16.47;66.90
12349;BME280;5974;42.710;27.258;2023-05-10T08:57:00;100718.22;;;16.80;66.26
12349;BME280;5974;42.710;27.258;2023-05-10T08:59:27;100721.47;;;17.61;65.60
12349;BME280;5974;42.710;27.258;2023-05-10T09:01:57;100722.69;;;17.69;65.75
12349;BME280;5974;42.710;27.258;2023-05-10T09:04:24;100713.06;;;17.39;65.28
12349;BME280;5974;42.710;27.258;2023-05-10T09:06:51;100716.13;;;17.47;65.82
12349;BME280;5974;42.710;27.258;2023-05-10T09:09:19;100713.47;;;18.05;63.42
12349;BME280;5974;42.710;27.258;2023-05-10T09:11:48;100717.03;;;17.75;63.67
12349;BME280;5974;42.710;27.258;2023-05-10T09:14:15;100714.22;;;18.07;62.48
12349;BME280;5974;42.710;27.258;2023-05-10T09:16:43;100714.78;;;17.98;61.34
12349;BME280;5974;42.710;27.258;2023-05-10T09:19:11;100661.78;;;17.71;60.88
12349;BME280;5974;42.710;27.258;2023-05-10T09:21:38;100698.97;;;18.67;61.79
12349;BME280;5974;42.710;27.258;2023-05-10T09:24:05;100700.13;;;18.34;59.12
12349;BME280;5974;42.710;27.258;2023-05-10T09:26:32;100700.97;;;18.49;59.85
12349;BME280;5974;42.710;27.258;2023-05-10T09:29:02;100711.94;;;18.29;59.07
12349;BME280;5974;42.710;27.258;2023-05-10T09:31:47;100696.03;;;19.11;59.11
12349;BME280;5974;42.710;27.258;2023-05-10T09:34:17;100703.34;;;18.54;58.69
12349;BME280;5974;42.710;27.258;2023-05-10T09:36:54;100702.97;;;18.46;58.19
12349;BME280;5974;42.710;27.258;2023-05-10T09:39:30;100722.22;;;17.63;60.40
12349;BME280;5974;42.710;27.258;2023-05-10T09:41:58;100716.81;;;17.05;61.51
12349;BME280;5974;42.710;27.258;2023-05-10T09:44:26;100713.91;;;17.25;61.63
12349;BME280;5974;42.710;27.258;2023-05-10T09:46:53;100714.03;;;17.67;61.54
12349;BME280;5974;42.710;27.258;2023-05-10T09:49:21;100712.16;;;17.54;60.73
12349;BME280;5974;42.710;27.258;2023-05-10T09:51:59;100661.16;;;17.38;62.49
12349;BME280;5974;42.710;27.258;2023-05-10T09:54:26;100713.09;;;17.97;62.21
12349;BME280;5974;42.710;27.258;2023-05-10T09:56:53;100714.41;;;17.75;63.16
12349;BME280;5974;42.710;27.258;2023-05-10T09:59:20;100710.13;;;17.59;64.25
12349;BME280;5974;42.710;27.258;2023-05-10T10:01:51;100714.22;;;18.07;63.52
12349;BME280;5974;42.710;27.258;2023-05-10T10:04:19;100701.53;;;17.55;62.82
12349;BME280;5974;42.710;27.258;2023-05-10T10:06:58;100714.34;;;18.05;63.41
12349;BME280;5974;42.710;27.258;2023-05-10T10:09:26;100699.22;;;18.76;62.18
12349;BME280;5974;42.710;27.258;2023-05-10T10:11:53;100705.97;;;18.39;59.51
12349;BME280;5974;42.710;27.258;2023-05-10T10:14:21;100711.47;;;17.80;60.96
12349;BME280;5974;42.710;27.258;2023-05-10T10:16:50;100702.59;;;18.23;62.11
12349;BME280;5974;42.710;27.258;2023-05-10T10:19:18;100692.28;;;18.19;59.79
12349;BME280;5974;42.710;27.258;2023-05-10T10:21:45;100708.28;;;17.89;60.47
12349;BME280;5974;42.710;27.258;2023-05-10T10:24:11;100712.81;;;18.15;61.44
12349;BME280;5974;42.710;27.258;2023-05-10T10:26:39;100697.84;;;18.42;60.46
12349;BME280;5974;42.710;27.258;2023-05-10T10:29:15;100696.56;;;18.76;60.83
12349;BME280;5974;42.710;27.258;2023-05-10T10:31:47;100692.75;;;18.80;58.95
12349;BME280;5974;42.710;27.258;2023-05-10T10:34:25;100685.50;;;18.70;58.15
12349;BME280;5974;42.710;27.258;2023-05-10T10:36:54;100702.53;;;18.66;58.67
12349;BME280;5974;42.710;27.258;2023-05-10T10:39:21;100708.44;;;18.28;59.66
12349;BME280;5974;42.710;27.258;2023-05-10T10:41:52;100705.63;;;18.17;59.71
12349;BME280;5974;42.710;27.258;2023-05-10T10:44:26;100710.16;;;18.15;60.87
12349;BME280;5974;42.710;27.258;2023-05-10T10:47:04;100704.88;;;18.29;58.04
12349;BME280;5974;42.710;27.258;2023-05-10T10:49:38;100693.47;;;18.70;55.79
12349;BME280;5974;42.710;27.258;2023-05-10T10:52:31;100690.81;;;18.70;55.52
12349;BME280;5974;42.710;27.258;2023-05-10T10:55:00;100694.75;;;18.36;57.07
12349;BME280;5974;42.710;27.258;2023-05-10T10:57:28;100700.72;;;18.11;58.44
12349;BME280;5974;42.710;27.258;2023-05-10T11:00:26;100706.19;;;17.80;58.65
12349;BME280;5974;42.710;27.258;2023-05-10T11:02:56;100711.00;;;18.16;58.49
12349;BME280;5974;42.710;27.258;2023-05-10T11:05:40;100689.31;;;18.37;58.93
12349;BME280;5974;42.710;27.258;2023-05-10T11:08:13;100701.75;;;18.51;58.39
12349;BME280;5974;42.710;27.258;2023-05-10T11:10:48;100712.16;;;17.83;59.45
12349;BME280;5974;42.710;27.258;2023-05-10T11:13:27;100702.88;;;17.76;61.35
12349;BME280;5974;42.710;27.258;2023-05-10T11:15:54;100707.25;;;17.92;61.07
12349;BME280;5974;42.710;27.258;2023-05-10T11:18:24;100701.94;;;17.33;62.56
12349;BME280;5974;42.710;27.258;2023-05-10T11:20:56;100697.50;;;17.34;63.10
12349;BME280;5974;42.710;27.258;2023-05-10T11:23:29;100701.69;;;16.77;66.72
12349;BME280;5974;42.710;27.258;2023-05-10T11:25:58;100699.50;;;16.69;68.81
12349;BME280;5974;42.710;27.258;2023-05-10T11:28:26;100706.78;;;16.96;67.64
12349;BME280;5974;42.710;27.258;2023-05-10T11:30:53;100697.13;;;17.10;65.15
12349;BME280;5974;42.710;27.258;2023-05-10T11:33:21;100699.09;;;17.66;64.51
12349;BME280;5974;42.710;27.258;2023-05-10T11:35:48;100694.19;;;18.17;63.16
12349;BME280;5974;42.710;27.258;2023-05-10T11:38:16;100696.09;;;18.15;61.55
12349;BME280;5974;42.710;27.258;2023-05-10T11:40:43;100699.28;;;18.20;61.64
12349;BME280;5974;42.710;27.258;2023-05-10T11:43:10;100689.97;;;18.69;61.18
12349;BME280;5974;42.710;27.258;2023-05-10T11:45:37;100688.09;;;18.84;61.43
12349;BME280;5974;42.710;27.258;2023-05-10T11:48:05;100672.97;;;18.99;62.44
12349;BME280;5974;42.710;27.258;2023-05-10T11:50:32;100675.59;;;18.59;61.06
12349;BME280;5974;42.710;27.258;2023-05-10T11:52:59;100692.28;;;18.19;61.17
12349;BME280;5974;42.710;27.258;2023-05-10T11:55:27;100691.34;;;18.06;62.10
12349;BME280;5974;42.710;27.258;2023-05-10T11:58:00;100692.88;;;17.38;63.25
12349;BME280;5974;42.710;27.258;2023-05-10T12:00:28;100680.75;;;17.19;64.04
12349;BME280;5974;42.710;27.258;2023-05-10T12:02:55;100680.53;;;16.93;66.22
12349;BME280;5974;42.710;27.258;2023-05-10T12:05:22;100677.00;;;16.62;65.86
12349;BME280;5974;42.710;27.258;2023-05-10T12:07:49;100677.75;;;16.80;67.50
12349;BME280;5974;42.710;27.258;2023-05-10T12:10:17;100670.75;;;16.95;64.13
12349;BME280;5974;42.710;27.258;2023-05-10T12:12:52;100665.94;;;17.01;65.96
12349;BME280;5974;42.710;27.258;2023-05-10T12:15:20;100653.75;;;17.58;63.49
12349;BME280;5974;42.710;27.258;2023-05-10T12:17:48;100628.22;;;18.14;62.24
12349;BME280;5974;42.710;27.258;2023-05-10T12:20:19;100662.66;;;17.71;60.27
12349;BME280;5974;42.710;27.258;2023-05-10T12:22:49;100639.19;;;18.08;61.63
12349;BME280;5974;42.710;27.258;2023-05-10T12:25:17;100646.69;;;18.28;58.75
12349;BME280;5974;42.710;27.258;2023-05-10T12:27:53;100622.06;;;17.43;60.09
12349;BME280;5974;42.710;27.258;2023-05-10T12:30:21;100649.50;;;17.56;58.30
12349;BME280;5974;42.710;27.258;2023-05-10T12:32:48;100647.22;;;17.64;58.94
12349;BME280;5974;42.710;27.258;2023-05-10T12:35:16;100640.69;;;17.11;59.44
12349;BME280;5974;42.710;27.258;2023-05-10T12:37:45;100657.72;;;17.65;60.22
12349;BME280;5974;42.710;27.258;2023-05-10T12:40:12;100642.50;;;17.83;57.29
12349;BME280;5974;42.710;27.258;2023-05-10T12:42:39;100638.78;;;17.43;58.46
12349;BME280;5974;42.710;27.258;2023-05-10T12:45:08;100636.13;;;17.43;59.22
12349;BME280;5974;42.710;27.258;2023-05-10T12:47:35;100635.03;;;17.47;59.03
12349;BME280;5974;42.710;27.258;2023-05-10T12:50:03;100632.72;;;17.41;60.58
12349;BME280;5974;42.710;27.258;2023-05-10T12:52:31;100621.88;;;17.46;62.31
12349;BME280;5974;42.710;27.258;2023-05-10T12:54:58;100636.09;;;17.29;60.58
12349;BME280;5974;42.710;27.258;2023-05-10T12:57:26;100635.97;;;16.57;62.72
12349;BME280;5974;42.710;27.258;2023-05-10T12:59:53;100632.19;;;16.76;61.54
12349;BME280;5974;42.710;27.258;2023-05-10T13:02:21;100643.16;;;16.85;60.42
12349;BME280;5974;42.710;27.258;2023-05-10T13:04:49;100633.22;;;17.04;60.14
12349;BME280;5974;42.710;27.258;2023-05-10T13:07:16;100632.09;;;17.08;60.56